createdAt,value
2022-10-18T00:01:17.214Z,101376.37
2022-10-18T00:04:06.450Z,101380.31
2022-10-18T00:06:53.283Z,101383.72
2022-10-18T00:09:40.714Z,101384.47
2022-10-18T00:12:27.982Z,101387.16
2022-10-18T00:15:15.353Z,101389.44
2022-10-18T00:18:02.457Z,101385.72
2022-10-18T00:21:00.012Z,101375.94
2022-10-18T00:23:48.004Z,101382.87
2022-10-18T00:26:34.965Z,101381.47
2022-10-18T00:29:21.937Z,101399.81
2022-10-18T00:32:09.354Z,101403.50
2022-10-18T00:34:56.286Z,101401.62
2022-10-18T00:37:45.085Z,101398.81
2022-10-18T00:40:32.121Z,101400.78
2022-10-18T00:43:19.558Z,101397.25
2022-10-18T00:46:06.754Z,101394.97
2022-10-18T00:51:51.891Z,101394.53
2022-10-18T00:54:43.101Z,101389.41
2022-10-18T00:57:30.367Z,101394.81
2022-10-18T01:00:18.398Z,101396.66
2022-10-18T01:03:05.196Z,101395.81
2022-10-18T01:05:52.617Z,101390.72
2022-10-18T01:09:03.247Z,101392.25
2022-10-18T01:12:07.315Z,101396.47
2022-10-18T01:15:00.410Z,101400.28
2022-10-18T01:17:57.034Z,101400.84
2022-10-18T01:21:09.856Z,101399.13
2022-10-18T01:24:33.257Z,101400.97
2022-10-18T01:27:34.664Z,101406.09
2022-10-18T01:30:53.638Z,101409.78
2022-10-18T01:33:44.025Z,101402.25
2022-10-18T01:36:35.721Z,101408.91
2022-10-18T01:39:27.655Z,101414.59
2022-10-18T01:42:17.921Z,101405.91
2022-10-18T01:45:05.891Z,101414.59
2022-10-18T01:47:55.950Z,101414.03
2022-10-18T01:50:43.289Z,101396.19
2022-10-18T01:53:32.447Z,101407.25
2022-10-18T01:56:25.391Z,101407.03
2022-10-18T01:59:34.404Z,101402.78
2022-10-18T02:02:34.225Z,101401.38
2022-10-18T02:05:31.235Z,101404.78
2022-10-18T02:08:28.791Z,101413.03
2022-10-18T02:11:17.628Z,101410.72
2022-10-18T02:14:08.988Z,101423.25
2022-10-18T02:16:58.099Z,101414.19
2022-10-18T02:19:47.769Z,101412.44
2022-10-18T02:22:38.161Z,101409.63
2022-10-18T02:25:28.377Z,101419.56
2022-10-18T02:28:16.856Z,101416.87
2022-10-18T02:31:11.814Z,101423.13
2022-10-18T02:34:02.094Z,101420.44
2022-10-18T02:36:52.746Z,101422.38
2022-10-18T02:39:45.237Z,101420.84
2022-10-18T02:42:35.826Z,101420.97
2022-10-18T02:45:23.679Z,101422.81
2022-10-18T02:48:10.858Z,101430.22
2022-10-18T02:50:58.236Z,101429.22
2022-10-18T02:53:45.164Z,101429.38
2022-10-18T02:56:33.827Z,101427.53
2022-10-18T02:59:20.725Z,101436.63
2022-10-18T03:02:07.937Z,101432.22
2022-10-18T03:04:54.661Z,101436.87
2022-10-18T03:07:42.005Z,101432.47
2022-10-18T03:10:28.676Z,101436.03
2022-10-18T03:13:17.324Z,101444.25
2022-10-18T03:16:04.742Z,101437.16
2022-10-18T03:18:51.802Z,101440.56
2022-10-18T03:21:38.877Z,101442.28
2022-10-18T03:24:26.262Z,101436.03
2022-10-18T03:27:13.044Z,101440.56
2022-10-18T03:30:05.935Z,101437.16
2022-10-18T03:32:54.271Z,101442.28
2022-10-18T03:35:41.062Z,101438.56
2022-10-18T03:38:31.246Z,101435.03
2022-10-18T03:41:18.851Z,101430.47
2022-10-18T03:44:07.845Z,101439.31
2022-10-18T03:46:56.822Z,101438.31
2022-10-18T03:49:43.713Z,101439.88
2022-10-18T03:52:31.672Z,101441.72
2022-10-18T03:55:19.017Z,101434.34
2022-10-18T03:58:06.447Z,101439.72
2022-10-18T04:00:54.481Z,101440.59
2022-10-18T04:03:42.942Z,101441.28
2022-10-18T04:06:29.815Z,101428.94
2022-10-18T04:09:17.206Z,101433.34
2022-10-18T04:12:04.344Z,101437.63
2022-10-18T04:14:51.844Z,101424.97
2022-10-18T04:17:38.695Z,101444.28
2022-10-18T04:20:27.328Z,101433.19
2022-10-18T04:23:13.976Z,101439.19
2022-10-18T04:26:00.917Z,101435.06
2022-10-18T04:28:47.792Z,101432.94
2022-10-18T04:31:34.834Z,101435.50
2022-10-18T04:34:21.688Z,101440.91
2022-10-18T04:37:10.201Z,101435.66
2022-10-18T04:39:57.188Z,101429.25
2022-10-18T04:42:44.094Z,101429.25
2022-10-18T04:45:30.973Z,101436.34
2022-10-18T04:48:18.182Z,101434.78
2022-10-18T04:51:04.937Z,101426.84
2022-10-18T04:53:53.356Z,101422.41
2022-10-18T04:56:40.073Z,101427.81
2022-10-18T04:59:26.979Z,101416.16
2022-10-18T05:02:13.928Z,101417.72
2022-10-18T05:05:00.731Z,101419.44
2022-10-18T05:07:47.533Z,101406.63
2022-10-18T05:10:35.925Z,101406.19
2022-10-18T05:13:22.628Z,101401.62
2022-10-18T05:16:09.533Z,101391.72
2022-10-18T05:18:56.450Z,101397.13
2022-10-18T05:21:43.344Z,101397.13
2022-10-18T05:24:30.082Z,101393.41
2022-10-18T05:27:18.128Z,101394.28
2022-10-18T05:30:06.010Z,101392.56
2022-10-18T05:32:53.223Z,101401.78
2022-10-18T05:35:40.003Z,101395.12
2022-10-18T05:38:27.516Z,101396.13
2022-10-18T05:41:14.147Z,101383.72
2022-10-18T05:44:06.045Z,101382.59
2022-10-18T05:46:52.946Z,101385.16
2022-10-18T05:49:40.003Z,101387.00
2022-10-18T05:52:26.809Z,101384.31
2022-10-18T05:55:13.691Z,101381.28
2022-10-18T05:58:00.498Z,101376.44
2022-10-18T06:00:49.167Z,101377.16
2022-10-18T06:03:36.454Z,101388.66
2022-10-18T06:06:23.371Z,101383.81
2022-10-18T06:09:11.013Z,101383.94
2022-10-18T06:11:58.508Z,101376.56
2022-10-18T06:14:45.515Z,101371.91
2022-10-18T06:17:34.044Z,101375.72
2022-10-18T06:20:21.412Z,101380.38
2022-10-18T06:23:07.979Z,101371.16
2022-10-18T06:25:54.898Z,101374.59
2022-10-18T06:28:41.841Z,101377.69
2022-10-18T06:31:29.080Z,101385.50
2022-10-18T06:34:17.395Z,101384.53
2022-10-18T06:37:04.793Z,101382.81
2022-10-18T06:39:51.568Z,101384.81
2022-10-18T06:42:38.795Z,101390.19
2022-10-18T06:45:25.802Z,101397.88
2022-10-18T06:48:12.731Z,101397.28
2022-10-18T06:51:02.354Z,101409.22
2022-10-18T06:53:59.628Z,101419.72
2022-10-18T06:56:57.766Z,101416.91
2022-10-18T06:59:45.182Z,101426.25
2022-10-18T07:02:32.127Z,101419.59
2022-10-18T07:05:19.585Z,101429.22
2022-10-18T07:08:08.001Z,101435.84
2022-10-18T07:10:55.463Z,101437.69
2022-10-18T07:13:42.062Z,101440.72
2022-10-18T07:16:28.906Z,101435.31
2022-10-18T07:19:16.392Z,101435.59
2022-10-18T07:22:03.251Z,101434.44
2022-10-18T07:24:51.385Z,101439.81
2022-10-18T07:27:39.287Z,101438.41
2022-10-18T07:30:26.263Z,101439.94
2022-10-18T07:33:14.107Z,101439.03
2022-10-18T07:36:02.244Z,101439.31
2022-10-18T07:38:49.465Z,101432.44
2022-10-18T07:41:38.112Z,101429.91
2022-10-18T07:44:26.035Z,101434.63
2022-10-18T07:47:13.336Z,101441.00
2022-10-18T07:50:01.069Z,101453.03
2022-10-18T07:52:48.496Z,101453.63
2022-10-18T07:55:36.118Z,101452.22
2022-10-18T07:58:24.455Z,101461.31
2022-10-18T08:01:12.607Z,101471.13
2022-10-18T08:04:06.188Z,101466.00
2022-10-18T08:06:54.170Z,101449.09
2022-10-18T08:09:41.200Z,101452.94
2022-10-18T08:12:27.886Z,101450.75
2022-10-18T08:15:16.831Z,101447.50
2022-10-18T08:18:03.849Z,101452.16
2022-10-18T08:20:50.755Z,101451.72
2022-10-18T08:23:38.388Z,101452.81
2022-10-18T08:26:26.034Z,101444.88
2022-10-18T08:29:31.634Z,101451.25
2022-10-18T08:32:20.605Z,101441.75
2022-10-18T08:35:09.450Z,101434.88
2022-10-18T08:37:56.547Z,101430.69
2022-10-18T08:40:45.003Z,101431.09
2022-10-18T08:43:39.779Z,101435.44
2022-10-18T08:46:26.875Z,101438.06
2022-10-18T08:49:24.015Z,101443.09
2022-10-18T08:52:20.566Z,101441.19
2022-10-18T08:55:15.547Z,101434.88
2022-10-18T08:58:02.571Z,101440.34
2022-10-18T09:01:00.255Z,101446.84
2022-10-18T09:06:49.878Z,101443.44
2022-10-18T09:09:43.642Z,101441.31
2022-10-18T09:12:50.960Z,101441.31
2022-10-18T09:15:48.276Z,101445.72
2022-10-18T09:18:57.681Z,101435.34
2022-10-18T09:21:52.453Z,101436.87
2022-10-18T09:24:41.419Z,101426.56
2022-10-18T09:27:46.775Z,101430.47
2022-10-18T09:30:42.569Z,101431.19
2022-10-18T09:33:40.244Z,101426.00
2022-10-18T09:36:35.503Z,101419.38
2022-10-18T09:39:29.467Z,101425.69
2022-10-18T09:42:26.606Z,101431.34
2022-10-18T09:45:25.183Z,101436.59
2022-10-18T09:48:16.684Z,101430.56
2022-10-18T09:51:06.868Z,101442.00
2022-10-18T09:54:06.795Z,101441.06
2022-10-18T09:57:02.268Z,101435.41
2022-10-18T09:59:50.308Z,101439.31
2022-10-18T10:02:37.348Z,101434.47
2022-10-18T10:05:24.742Z,101442.84
2022-10-18T10:08:12.267Z,101441.38
2022-10-18T10:10:59.260Z,101449.38
2022-10-18T10:13:48.720Z,101451.22
2022-10-18T10:16:44.847Z,101452.09
2022-10-18T10:19:35.736Z,101456.66
2022-10-18T10:22:28.397Z,101462.81
2022-10-18T10:25:31.970Z,101459.38
2022-10-18T10:28:23.389Z,101462.50
2022-10-18T10:31:28.922Z,101461.06
2022-10-18T10:34:21.261Z,101468.75
2022-10-18T10:37:25.644Z,101462.38
2022-10-18T10:40:25.118Z,101460.81
2022-10-18T10:43:36.472Z,101451.41
2022-10-18T10:46:35.586Z,101445.72
2022-10-18T10:49:41.246Z,101444.31
2022-10-18T10:52:31.726Z,101446.56
2022-10-18T10:55:34.793Z,101453.81
2022-10-18T10:58:23.628Z,101452.16
2022-10-18T11:01:32.672Z,101460.25
2022-10-18T11:04:25.817Z,101461.81
2022-10-18T11:07:24.391Z,101472.75
2022-10-18T11:10:16.627Z,101475.59
2022-10-18T11:13:18.468Z,101474.19
2022-10-18T11:16:13.239Z,101479.59
2022-10-18T11:19:04.134Z,101492.41
2022-10-18T11:21:53.926Z,101490.25
2022-10-18T11:24:41.005Z,101494.25
2022-10-18T11:27:35.186Z,101493.25
2022-10-18T11:30:38.058Z,101495.94
2022-10-18T11:33:56.332Z,101493.09
2022-10-18T11:36:56.844Z,101489.38
2022-10-18T11:40:04.915Z,101494.50
2022-10-18T11:43:01.818Z,101484.84
2022-10-18T11:45:56.811Z,101476.88
2022-10-18T11:49:01.117Z,101486.69
2022-10-18T11:52:08.380Z,101486.69
2022-10-18T11:55:12.516Z,101492.38
2022-10-18T11:58:07.998Z,101484.81
2022-10-18T12:01:02.588Z,101483.56
2022-10-18T12:03:59.695Z,101484.66
2022-10-18T12:06:50.409Z,101483.28
2022-10-18T12:09:41.036Z,101482.41
2022-10-18T12:12:33.294Z,101474.72
2022-10-18T12:15:23.898Z,101479.44
2022-10-18T12:18:15.836Z,101470.63
2022-10-18T12:21:03.650Z,101464.34
2022-10-18T12:23:54.751Z,101465.06
2022-10-18T12:26:43.507Z,101464.78
2022-10-18T12:29:38.179Z,101455.97
2022-10-18T12:32:30.923Z,101456.28
2022-10-18T12:35:21.716Z,101456.69
2022-10-18T12:38:21.222Z,101457.72
2022-10-18T12:41:08.342Z,101462.09
2022-10-18T12:44:02.300Z,101465.13
2022-10-18T12:46:45.740Z,101450.75
2022-10-18T12:49:18.122Z,101447.84
2022-10-18T12:51:52.920Z,101451.97
2022-10-18T12:54:26.252Z,101446.25
2022-10-18T12:56:54.496Z,101435.75
2022-10-18T12:59:54.818Z,101444.31
2022-10-18T13:02:34.117Z,101447.94
2022-10-18T13:05:53.050Z,101444.03
2022-10-18T13:08:45.921Z,101450.44
2022-10-18T13:11:35.798Z,101446.84
2022-10-18T13:14:27.317Z,101456.09
2022-10-18T13:17:06.383Z,101458.56
2022-10-18T13:19:51.362Z,101452.03
2022-10-18T13:22:36.177Z,101454.78
2022-10-18T13:25:13.147Z,101449.34
2022-10-18T13:27:48.584Z,101456.16
2022-10-18T13:30:34.068Z,101454.28
2022-10-18T13:33:23.419Z,101464.41
2022-10-18T13:35:55.484Z,101469.66
2022-10-18T13:38:42.784Z,101465.03
2022-10-18T13:41:12.852Z,101468.16
2022-10-18T13:44:11.409Z,101468.50
2022-10-18T13:47:19.610Z,101469.19
2022-10-18T13:50:11.862Z,101478.13
2022-10-18T13:53:20.527Z,101475.47
2022-10-18T13:56:23.397Z,101477.56
2022-10-18T13:59:14.360Z,101481.50
2022-10-18T14:01:55.102Z,101485.66
2022-10-18T14:04:47.925Z,101484.41
2022-10-18T14:07:20.353Z,101485.53
2022-10-18T14:10:03.432Z,101487.28
2022-10-18T14:12:45.910Z,101484.44
2022-10-18T14:15:19.502Z,101482.72
2022-10-18T14:17:52.293Z,101476.19
2022-10-18T14:20:29.924Z,101485.59
2022-10-18T14:23:10.568Z,101486.16
2022-10-18T14:25:46.198Z,101475.06
2022-10-18T14:28:27.415Z,101480.59
2022-10-18T14:31:09.132Z,101487.00
2022-10-18T14:33:39.776Z,101479.59
2022-10-18T14:36:15.574Z,101485.84
2022-10-18T14:38:58.589Z,101492.25
2022-10-18T14:41:31.532Z,101494.50
2022-10-18T14:44:19.435Z,101496.38
2022-10-18T14:46:50.140Z,101495.38
2022-10-18T14:49:20.356Z,101490.25
2022-10-18T14:51:52.575Z,101488.00
2022-10-18T14:54:31.851Z,101484.41
2022-10-18T14:57:05.250Z,101483.16
2022-10-18T14:59:42.554Z,101489.81
2022-10-18T15:02:15.596Z,101480.84
2022-10-18T15:04:45.316Z,101485.28
2022-10-18T15:07:17.239Z,101485.28
2022-10-18T15:09:48.731Z,101479.16
2022-10-18T15:12:18.974Z,101481.00
2022-10-18T15:14:52.166Z,101471.03
2022-10-18T15:17:27.236Z,101473.47
2022-10-18T15:20:01.951Z,101475.88
2022-10-18T15:22:34.529Z,101477.19
2022-10-18T15:25:19.168Z,101471.34
2022-10-18T15:27:50.245Z,101468.34
2022-10-18T15:30:22.917Z,101465.06
2022-10-18T15:32:53.696Z,101471.47
2022-10-18T15:35:26.749Z,101476.00
2022-10-18T15:37:57.189Z,101475.00
2022-10-18T15:40:41.175Z,101478.38
2022-10-18T15:43:36.117Z,101484.75
2022-10-18T15:46:07.317Z,101490.44
2022-10-18T15:48:39.935Z,101484.00
2022-10-18T15:51:09.242Z,101483.44
2022-10-18T15:53:46.323Z,101482.69
2022-10-18T15:56:34.044Z,101483.25
2022-10-18T15:59:05.643Z,101481.09
2022-10-18T16:01:39.396Z,101482.31
2022-10-18T16:04:15.023Z,101479.31
2022-10-18T16:06:43.198Z,101487.22
2022-10-18T16:09:16.706Z,101492.88
2022-10-18T16:11:47.237Z,101487.06
2022-10-18T16:14:15.597Z,101486.00
2022-10-18T16:16:43.958Z,101485.66
2022-10-18T16:19:15.763Z,101487.91
2022-10-18T16:21:44.804Z,101498.47
2022-10-18T16:24:13.285Z,101492.59
2022-10-18T16:26:41.635Z,101494.00
2022-10-18T16:29:15.658Z,101495.09
2022-10-18T16:31:44.132Z,101492.81
2022-10-18T16:34:14.971Z,101497.63
2022-10-18T16:36:43.099Z,101501.28
2022-10-18T16:39:16.292Z,101506.56
2022-10-18T16:46:42.664Z,101513.66
2022-10-18T16:51:52.996Z,101518.31
2022-10-18T16:54:21.855Z,101517.44
2022-10-18T16:56:50.272Z,101526.50
2022-10-18T16:59:25.133Z,101525.06
2022-10-18T17:01:53.730Z,101530.34
2022-10-18T17:04:22.082Z,101521.53
2022-10-18T17:06:50.609Z,101526.66
2022-10-18T17:09:19.086Z,101535.59
2022-10-18T17:11:47.384Z,101532.88
2022-10-18T17:14:15.561Z,101530.06
2022-10-18T17:16:48.281Z,101537.19
2022-10-18T17:19:21.331Z,101535.59
2022-10-18T17:21:49.781Z,101534.72
2022-10-18T17:24:18.056Z,101545.37
2022-10-18T17:26:46.459Z,101537.56
2022-10-18T17:29:15.026Z,101540.38
2022-10-18T17:31:43.638Z,101548.84
2022-10-18T17:34:21.349Z,101552.53
2022-10-18T17:36:51.562Z,101548.84
2022-10-18T17:39:20.230Z,101550.81
2022-10-18T17:41:48.642Z,101550.69
2022-10-18T17:44:17.355Z,101555.13
2022-10-18T17:46:45.767Z,101550.09
2022-10-18T17:49:26.656Z,101551.09
2022-10-18T17:51:56.889Z,101538.87
2022-10-18T17:54:25.392Z,101543.31
2022-10-18T17:56:54.641Z,101541.25
2022-10-18T17:59:23.345Z,101550.53
2022-10-18T18:01:51.911Z,101552.63
2022-10-18T18:04:21.825Z,101547.59
2022-10-18T18:06:52.251Z,101552.63
2022-10-18T18:09:21.249Z,101551.66
2022-10-18T18:11:50.456Z,101550.44
2022-10-18T18:14:19.126Z,101548.34
2022-10-18T18:16:48.302Z,101547.28
2022-10-18T18:19:18.995Z,101538.97
2022-10-18T18:21:49.492Z,101549.22
2022-10-18T18:24:20.160Z,101550.59
2022-10-18T18:26:48.819Z,101562.94
2022-10-18T18:29:17.080Z,101555.59
2022-10-18T18:31:45.663Z,101562.06
2022-10-18T18:34:14.726Z,101559.59
2022-10-18T18:36:44.198Z,101558.09
2022-10-18T18:39:19.570Z,101558.44
2022-10-18T18:41:49.691Z,101567.00
2022-10-18T18:44:19.220Z,101564.06
2022-10-18T18:46:48.815Z,101561.81
2022-10-18T18:49:17.096Z,101558.53
2022-10-18T18:51:45.426Z,101565.13
2022-10-18T18:54:17.089Z,101561.91
2022-10-18T18:56:45.268Z,101566.03
2022-10-18T18:59:15.182Z,101561.16
2022-10-18T19:01:44.327Z,101563.44
2022-10-18T19:04:13.075Z,101562.94
2022-10-18T19:06:44.046Z,101559.72
2022-10-18T19:09:19.274Z,101571.69
2022-10-18T19:11:50.707Z,101575.56
2022-10-18T19:14:19.838Z,101576.13
2022-10-18T19:16:49.788Z,101589.00
2022-10-18T19:19:19.753Z,101583.88
2022-10-18T19:21:51.344Z,101588.50
2022-10-18T19:24:20.671Z,101587.66
2022-10-18T19:26:52.534Z,101585.56
2022-10-18T19:29:23.292Z,101587.94
2022-10-18T19:31:53.187Z,101597.41
2022-10-18T19:34:22.782Z,101593.75
2022-10-18T19:36:51.698Z,101597.50
2022-10-18T19:39:22.438Z,101596.53
2022-10-18T19:41:55.225Z,101600.94
2022-10-18T19:44:25.916Z,101602.75
2022-10-18T19:46:54.731Z,101592.03
2022-10-18T19:49:23.279Z,101588.38
2022-10-18T19:51:51.827Z,101587.09
2022-10-18T19:54:20.218Z,101603.41
2022-10-18T19:56:48.532Z,101609.31
2022-10-18T19:59:18.867Z,101605.28
2022-10-18T20:01:47.322Z,101602.16
2022-10-18T20:04:16.779Z,101606.87
2022-10-18T20:06:45.403Z,101605.47
2022-10-18T20:09:17.888Z,101602.34
2022-10-18T20:11:49.343Z,101597.62
2022-10-18T20:14:18.894Z,101599.13
2022-10-18T20:16:47.130Z,101608.53
2022-10-18T20:19:15.611Z,101605.12
2022-10-18T20:21:43.874Z,101608.44
2022-10-18T20:24:12.589Z,101604.03
2022-10-18T20:26:41.219Z,101606.94
2022-10-18T20:29:09.663Z,101607.69
2022-10-18T20:31:39.542Z,101613.91
2022-10-18T20:34:12.482Z,101616.87
2022-10-18T20:36:41.809Z,101613.34
2022-10-18T20:39:10.811Z,101612.28
2022-10-18T20:41:41.144Z,101608.72
2022-10-18T20:44:14.433Z,101609.59
2022-10-18T20:46:44.968Z,101616.56
2022-10-18T20:49:15.562Z,101616.47
2022-10-18T20:51:43.991Z,101625.38
2022-10-18T20:54:13.401Z,101629.22
2022-10-18T20:56:42.399Z,101626.13
2022-10-18T20:59:11.529Z,101628.78
2022-10-18T21:01:40.357Z,101634.59
2022-10-18T21:04:11.847Z,101635.97
2022-10-18T21:06:42.052Z,101649.00
2022-10-18T21:09:14.152Z,101652.66
2022-10-18T21:11:44.873Z,101663.38
2022-10-18T21:14:15.204Z,101662.72
2022-10-18T21:16:44.098Z,101660.13
2022-10-18T21:19:15.649Z,101672.38
2022-10-18T21:21:45.877Z,101677.56
2022-10-18T21:24:15.196Z,101669.72
2022-10-18T21:26:43.945Z,101673.81
2022-10-18T21:29:15.943Z,101659.00
2022-10-18T21:31:47.007Z,101654.63
2022-10-18T21:34:18.418Z,101663.34
2022-10-18T21:36:48.493Z,101659.81
2022-10-18T21:39:18.432Z,101663.66
2022-10-18T21:41:47.279Z,101657.56
2022-10-18T21:44:15.895Z,101645.38
2022-10-18T21:46:44.371Z,101652.56
2022-10-18T21:49:13.656Z,101652.19
2022-10-18T21:51:43.184Z,101640.53
2022-10-18T21:54:14.467Z,101643.78
2022-10-18T21:56:43.205Z,101644.91
2022-10-18T21:59:12.507Z,101645.06
2022-10-18T22:01:43.568Z,101641.53
2022-10-18T22:04:20.097Z,101643.44
2022-10-18T22:06:49.960Z,101636.06
2022-10-18T22:09:18.770Z,101631.78
2022-10-18T22:11:49.393Z,101632.06
2022-10-18T22:14:17.986Z,101618.88
2022-10-18T22:16:46.532Z,101623.75
2022-10-18T22:19:14.772Z,101622.63
2022-10-18T22:21:43.010Z,101619.56
2022-10-18T22:24:12.904Z,101632.00
2022-10-18T22:26:42.949Z,101623.31
2022-10-18T22:29:13.930Z,101627.25
2022-10-18T22:31:45.220Z,101625.69
2022-10-18T22:34:16.165Z,101619.00
2022-10-18T22:36:44.497Z,101624.66
2022-10-18T22:39:15.372Z,101628.75
2022-10-18T22:41:44.517Z,101632.75
2022-10-18T22:44:13.808Z,101630.44
2022-10-18T22:46:42.409Z,101625.34
2022-10-18T22:49:12.634Z,101620.13
2022-10-18T22:51:41.121Z,101622.22
2022-10-18T22:54:09.346Z,101610.38
2022-10-18T22:56:39.298Z,101617.03
2022-10-18T22:59:07.513Z,101619.25
2022-10-18T23:01:35.988Z,101617.44
2022-10-18T23:04:05.407Z,101623.72
2022-10-18T23:06:35.188Z,101631.16
2022-10-18T23:09:05.925Z,101626.75
2022-10-18T23:11:35.355Z,101633.59
2022-10-18T23:14:07.069Z,101637.00
2022-10-18T23:16:36.127Z,101634.69
2022-10-18T23:19:04.964Z,101631.34
2022-10-18T23:21:35.416Z,101635.41
2022-10-18T23:24:04.357Z,101635.59
2022-10-18T23:26:32.978Z,101632.12
2022-10-18T23:29:01.615Z,101633.03
2022-10-18T23:31:33.102Z,101629.56
2022-10-18T23:34:03.070Z,101636.03
2022-10-18T23:36:32.655Z,101633.37
2022-10-18T23:39:01.130Z,101634.41
2022-10-18T23:41:29.385Z,101634.56
2022-10-18T23:43:57.987Z,101634.84
2022-10-18T23:46:26.243Z,101639.75
2022-10-18T23:48:55.866Z,101648.31
2022-10-18T23:51:24.412Z,101646.19
2022-10-18T23:53:52.619Z,101641.97
2022-10-18T23:56:21.200Z,101639.31
2022-10-18T23:58:49.723Z,101642.22
